Time;durP1;ratioP1;P1;durP2;ratioP2;P2;SDS_P1;SDS_P2;PMS_P1;PMS_P2;Temp;Humidity;BMP_temperature;BMP_pressure;BME280_temperature;BME280_humidity;BME280_pressure;Samples;Min_cycle;Max_cycle;Signal;HPM_P1;HPM_P2
2022/09/05 00:04:19;;;;;;;3.13;1.80;;;;;16.20;101277.00;;;;13113640;22;20175;-74
2022/09/05 00:10:04;;;;;;;2.80;2.07;;;;;16.10;101284.00;;;;13111446;22;20203;-74
2022/09/05 00:15:47;;;;;;;1.83;1.73;;;;;16.00;101283.00;;;;13037032;22;20650;-74
2022/09/05 00:21:22;;;;;;;2.87;1.80;;;;;15.90;101283.00;;;;13085230;22;20164;-74
2022/09/05 00:26:49;;;;;;;1.77;1.63;;;;;15.90;101276.00;;;;13087266;22;20210;-74
2022/09/05 00:32:05;;;;;;;3.13;2.00;;;;;15.80;101276.00;;;;13111898;22;20166;-74
2022/09/05 00:37:09;;;;;;;3.33;1.87;;;;;15.70;101270.00;;;;13085963;22;20199;-74
2022/09/05 00:42:20;;;;;;;2.40;1.90;;;;;15.60;101266.00;;;;13013146;22;20217;-74
2022/09/05 00:47:45;;;;;;;2.03;1.83;;;;;15.60;101254.00;;;;13038591;22;20176;-74
2022/09/05 00:53:01;;;;;;;4.63;2.60;;;;;15.60;101257.00;;;;13059768;22;20186;-74
2022/09/05 00:58:27;;;;;;;7.90;2.10;;;;;15.50;101248.00;;;;13113290;22;20467;-74
2022/09/05 01:03:56;;;;;;;2.77;2.23;;;;;15.50;101238.00;;;;13063533;22;20198;-74
2022/09/05 01:09:19;;;;;;;3.00;2.30;;;;;15.40;101242.00;;;;13037105;22;20571;-74
2022/09/05 01:14:36;;;;;;;4.27;2.13;;;;;15.30;101240.00;;;;13063492;22;20195;-74
2022/09/05 01:19:44;;;;;;;4.03;2.17;;;;;15.30;101237.00;;;;13036818;22;20256;-74
2022/09/05 01:25:07;;;;;;;5.00;2.47;;;;;15.20;101243.00;;;;13084094;22;20164;-74
2022/09/05 01:30:14;;;;;;;2.83;1.80;;;;;15.10;101241.00;;;;13011291;22;20213;-73
2022/09/05 01:35:27;;;;;;;2.47;2.27;;;;;15.10;101237.00;;;;13112746;22;20179;-74
2022/09/05 01:40:53;;;;;;;4.17;2.37;;;;;15.00;101237.00;;;;13084462;22;20164;-74
2022/09/05 01:46:23;;;;;;;3.27;2.30;;;;;15.00;101233.00;;;;13063210;22;20182;-74
2022/09/05 01:51:50;;;;;;;3.80;2.27;;;;;15.00;101237.00;;;;13085872;22;20681;-74
2022/09/05 01:57:18;;;;;;;4.40;2.30;;;;;15.00;101231.00;;;;13111848;22;20191;-74
2022/09/05 02:02:39;;;;;;;3.80;2.63;;;;;15.00;101238.00;;;;13084527;22;20163;-74
2022/09/05 02:07:57;;;;;;;4.70;2.60;;;;;15.00;101240.00;;;;13110875;22;20168;-74
2022/09/05 02:13:30;;;;;;;4.43;2.80;;;;;15.00;101246.00;;;;13011919;22;20205;-74
2022/09/05 02:18:51;;;;;;;2.50;2.30;;;;;15.00;101245.00;;;;13030728;22;20175;-74
2022/09/05 02:24:18;;;;;;;3.30;2.20;;;;;15.00;101245.00;;;;13062906;22;20658;-74
2022/09/05 02:29:29;;;;;;;8.63;2.90;;;;;15.00;101241.00;;;;13058786;22;20208;-74
2022/09/05 02:35:13;;;;;;;3.43;2.30;;;;;15.00;101239.00;;;;13110427;22;20736;-74
2022/09/05 02:40:36;;;;;;;5.83;3.10;;;;;15.00;101241.00;;;;13018361;22;20175;-74
2022/09/05 02:46:18;;;;;;;7.97;3.57;;;;;15.00;101240.00;;;;13112670;22;20711;-74
2022/09/05 02:51:47;;;;;;;3.13;2.70;;;;;15.00;101245.00;;;;13112478;22;20220;-74
2022/09/05 02:57:37;;;;;;;3.13;2.87;;;;;15.00;101232.00;;;;13083804;22;20187;-74
2022/09/05 03:03:14;;;;;;;3.97;2.40;;;;;15.00;101235.00;;;;13036172;22;20399;-74
2022/09/05 03:08:52;;;;;;;2.97;2.70;;;;;15.00;101239.00;;;;13057985;22;20533;-74
2022/09/05 03:14:17;;;;;;;4.87;3.13;;;;;15.20;101235.00;;;;13058641;22;20206;-74
2022/09/05 03:19:50;;;;;;;4.20;2.93;;;;;15.40;101237.00;;;;13037537;22;20185;-74
2022/09/05 03:25:10;;;;;;;3.27;2.47;;;;;15.50;101232.00;;;;13063412;22;20188;-74
2022/09/05 03:30:14;;;;;;;6.03;2.73;;;;;15.60;101226.00;;;;13083944;22;20228;-74
2022/09/05 03:35:47;;;;;;;3.43;2.40;;;;;15.60;101221.00;;;;13038275;22;20195;-74
2022/09/05 03:41:08;;;;;;;2.90;2.57;;;;;15.70;101222.00;;;;12960455;22;20255;-74
2022/09/05 03:46:20;;;;;;;2.30;2.10;;;;;15.70;101231.00;;;;13112419;22;20598;-74
2022/09/05 03:51:30;;;;;;;2.80;2.50;;;;;15.70;101230.00;;;;13061657;22;20177;-74
2022/09/05 03:57:05;;;;;;;2.90;2.60;;;;;15.60;101237.00;;;;13083168;22;20187;-74
2022/09/05 04:02:31;;;;;;;2.60;2.40;;;;;15.40;101227.00;;;;13057186;22;20156;-74
2022/09/05 04:08:09;;;;;;;4.57;2.70;;;;;15.30;101231.00;;;;13035587;22;20182;-74
2022/09/05 04:13:36;;;;;;;5.03;2.53;;;;;15.20;101230.00;;;;13082765;22;20183;-74
2022/09/05 04:19:09;;;;;;;3.77;3.10;;;;;15.10;101239.00;;;;13002407;22;20178;-74
2022/09/05 04:24:20;;;;;;;5.07;2.73;;;;;15.10;101237.00;;;;13035106;22;20172;-74
2022/09/05 04:29:36;;;;;;;5.77;3.20;;;;;15.00;101246.00;;;;13108511;22;20184;-74
2022/09/05 04:35:15;;;;;;;4.60;3.07;;;;;15.00;101243.00;;;;13109036;22;20198;-74
2022/09/05 04:40:32;;;;;;;3.67;2.90;;;;;14.90;101244.00;;;;13036590;22;20627;-74
2022/09/05 04:45:38;;;;;;;3.70;2.90;;;;;14.90;101247.00;;;;13038725;22;21440;-74
2022/09/05 04:51:02;;;;;;;3.93;3.33;;;;;15.00;101250.00;;;;13011240;22;20203;-74
2022/09/05 04:56:13;;;;;;;5.17;2.90;;;;;15.10;101251.00;;;;13063047;22;20203;-74
2022/09/05 05:01:22;;;;;;;5.23;3.27;;;;;15.30;101254.00;;;;13085403;22;20239;-74
2022/09/05 05:06:49;;;;;;;4.17;2.90;;;;;15.50;101259.00;;;;13036413;22;20248;-74
2022/09/05 05:12:04;;;;;;;3.13;2.63;;;;;15.70;101269.00;;;;13059516;22;20537;-74
2022/09/05 05:17:39;;;;;;;4.00;3.37;;;;;16.00;101264.00;;;;13058651;22;20732;-74
2022/09/05 05:23:12;;;;;;;3.47;2.20;;;;;16.40;101260.00;;;;12990308;22;20328;-74
2022/09/05 05:28:25;;;;;;;3.10;1.97;;;;;16.90;101264.00;;;;13038183;22;20854;-74
2022/09/05 05:33:31;;;;;;;2.53;2.10;;;;;17.30;101267.00;;;;13046103;22;20214;-74
2022/09/05 05:38:33;;;;;;;2.43;1.90;;;;;17.70;101291.00;;;;13109047;22;20820;-73
2022/09/05 05:43:42;;;;;;;5.65;2.17;;;;;17.90;101290.00;;;;13059103;22;20175;-73
2022/09/05 05:48:50;;;;;;;2.47;2.27;;;;;18.20;101294.00;;;;13105670;22;20163;-74
2022/09/05 05:54:05;;;;;;;3.90;2.20;;;;;18.40;101289.00;;;;13036540;22;20198;-74
2022/09/05 05:59:38;;;;;;;5.13;2.22;;;;;18.60;101290.00;;;;13109650;22;20167;-74
2022/09/05 06:05:07;;;;;;;3.15;2.20;;;;;18.80;101296.00;;;;13077572;22;20171;-74
2022/09/05 06:10:49;;;;;;;4.00;2.50;;;;;19.20;101288.00;;;;13108366;22;20167;-74
2022/09/05 06:16:37;;;;;;;5.18;2.42;;;;;19.50;101296.00;;;;13059618;22;20191;-74
2022/09/05 06:21:51;;;;;;;1.60;1.50;;;;;19.80;101284.00;;;;13063493;22;20657;-74
2022/09/05 06:27:35;;;;;;;2.90;1.88;;;;;20.30;101286.00;;;;13110745;22;20179;-74
2022/09/05 06:33:09;;;;;;;2.10;1.90;;;;;21.20;101298.00;;;;13060844;22;20537;-75
2022/09/05 06:38:38;;;;;;;2.13;1.50;;;;;21.80;101294.00;;;;13023479;22;20167;-74
2022/09/05 06:44:12;;;;;;;3.75;1.55;;;;;22.20;101288.00;;;;13083291;22;20236;-75
2022/09/05 06:49:24;;;;;;;5.45;1.85;;;;;22.50;101305.00;;;;13058545;22;20809;-75
2022/09/05 06:54:59;;;;;;;3.78;1.80;;;;;23.00;101318.00;;;;13059382;22;20528;-75
2022/09/05 07:00:10;;;;;;;2.22;1.73;;;;;23.60;101314.00;;;;13083800;22;20179;-75
2022/09/05 07:05:43;;;;;;;2.63;1.55;;;;;23.90;101323.00;;;;13033447;22;20202;-76
2022/09/05 07:11:00;;;;;;;5.05;1.90;;;;;23.90;101314.00;;;;13082777;22;20159;-75
2022/09/05 07:16:29;;;;;;;2.60;1.95;;;;;24.10;101333.00;;;;13079409;22;20187;-75
2022/09/05 07:22:02;;;;;;;2.25;2.05;;;;;24.30;101342.00;;;;13105549;22;20167;-75
2022/09/05 07:27:05;;;;;;;2.55;1.77;;;;;24.50;101345.00;;;;13059204;22;20195;-75
2022/09/05 07:32:16;;;;;;;2.40;1.50;;;;;24.60;101360.00;;;;13059758;22;20258;-75
2022/09/05 07:37:34;;;;;;;4.60;1.75;;;;;24.90;101360.00;;;;13032416;22;20202;-76
2022/09/05 07:42:43;;;;;;;3.28;1.83;;;;;25.30;101359.00;;;;13079620;22;20170;-76
2022/09/05 07:48:10;;;;;;;2.03;1.52;;;;;25.70;101352.00;;;;13061200;22;21128;-76
2022/09/05 07:53:15;;;;;;;2.88;1.50;;;;;26.00;101367.00;;;;13059202;22;20584;-76
2022/09/05 07:58:47;;;;;;;3.28;1.23;;;;;26.30;101379.00;;;;13082228;22;20160;-76
2022/09/05 08:03:56;;;;;;;2.85;1.67;;;;;26.70;101361.00;;;;13060390;22;20163;-76
2022/09/05 08:09:14;;;;;;;4.32;1.65;;;;;26.90;101375.00;;;;13057346;22;20266;-76
2022/09/05 08:14:41;;;;;;;3.30;1.60;;;;;26.80;101375.00;;;;13082081;22;20179;-76
2022/09/05 08:20:08;;;;;;;3.25;1.50;;;;;27.30;101372.00;;;;13036686;22;20207;-76
2022/09/05 08:25:15;;;;;;;4.55;1.90;;;;;27.80;101369.00;;;;13085055;22;20176;-76
2022/09/05 08:30:17;;;;;;;2.80;1.67;;;;;28.20;101370.00;;;;13064865;22;20171;-76
2022/09/05 08:35:45;;;;;;;2.97;1.50;;;;;28.90;101369.00;;;;13062727;22;20274;-76
2022/09/05 08:41:07;;;;;;;2.35;1.52;;;;;29.60;101363.00;;;;13110394;22;20171;-76
2022/09/05 08:46:32;;;;;;;4.05;1.70;;;;;30.30;101372.00;;;;13018337;22;20327;-76
2022/09/05 08:51:56;;;;;;;2.22;1.52;;;;;30.90;101365.00;;;;13015169;22;20939;-76
2022/09/05 08:57:15;;;;;;;4.72;2.08;;;;;31.10;101357.00;;;;13084599;22;20409;-76
2022/09/05 09:02:30;;;;;;;6.43;1.80;;;;;31.30;101359.00;;;;13084696;22;20168;-76
2022/09/05 09:07:56;;;;;;;4.10;1.30;;;;;31.70;101356.00;;;;13062837;22;20466;-76
2022/09/05 09:13:29;;;;;;;4.40;1.30;;;;;32.10;101341.00;;;;13109659;22;20167;-76
2022/09/05 09:18:45;;;;;;;4.35;1.30;;;;;32.70;101336.00;;;;13109324;22;20694;-76
2022/09/05 09:24:01;;;;;;;1.65;1.33;;;;;33.20;101328.00;;;;13111738;22;20923;-76
2022/09/05 09:29:07;;;;;;;3.17;1.40;;;;;33.40;101336.00;;;;13062939;22;20201;-76
2022/09/05 09:34:24;;;;;;;3.60;1.23;;;;;33.60;101333.00;;;;13084003;22;20271;-76
2022/09/05 09:40:08;;;;;;;1.60;1.23;;;;;33.70;101332.00;;;;13084193;22;20171;-76
2022/09/05 09:45:28;;;;;;;2.88;1.42;;;;;34.00;101329.00;;;;13084121;22;20166;-76
2022/09/05 09:50:33;;;;;;;2.17;1.10;;;;;34.30;101326.00;;;;13062165;22;20169;-76
2022/09/05 09:55:59;;;;;;;2.20;1.70;;;;;34.50;101324.00;;;;13035810;22;20199;-76
2022/09/05 10:01:30;;;;;;;1.98;1.58;;;;;34.70;101328.00;;;;13084029;22;20167;-76
2022/09/05 10:06:58;;;;;;;3.40;1.10;;;;;34.80;101318.00;;;;13084061;22;20163;-75
2022/09/05 10:13:04;;;;;;;2.92;1.50;;;;;34.90;101310.00;;;;13058266;22;20175;-76
2022/09/05 10:18:34;;;;;;;1.60;1.40;;;;;35.30;101308.00;;;;13063061;22;20176;-75
2022/09/05 10:23:56;;;;;;;2.83;1.50;;;;;36.00;101301.00;;;;13037009;22;20175;-76
2022/09/05 10:29:34;;;;;;;2.35;1.52;;;;;36.70;101302.00;;;;13083889;22;20257;-76
2022/09/05 10:35:04;;;;;;;3.15;1.20;;;;;35.30;101301.00;;;;13109216;22;20183;-75
2022/09/05 10:40:26;;;;;;;4.18;1.60;;;;;35.10;101303.00;;;;13112110;22;20189;-76
2022/09/05 10:45:48;;;;;;;2.47;1.38;;;;;35.50;101286.00;;;;13064162;22;20172;-76
2022/09/05 10:51:03;;;;;;;3.42;1.40;;;;;35.40;101296.00;;;;13036498;22;20844;-76
2022/09/05 10:56:13;;;;;;;3.60;1.25;;;;;35.00;101288.00;;;;13083894;22;20198;-76
2022/09/05 11:01:28;;;;;;;4.97;1.23;;;;;36.10;101290.00;;;;13061785;22;20172;-76
2022/09/05 11:07:21;;;;;;;2.17;1.40;;;;;35.90;101292.00;;;;13081474;22;20171;-76
2022/09/05 11:12:56;;;;;;;3.33;1.45;;;;;35.70;101290.00;;;;13053885;22;20251;-76
2022/09/05 11:18:08;;;;;;;2.45;1.50;;;;;36.00;101269.00;;;;13083298;22;20577;-76
2022/09/05 11:23:16;;;;;;;3.75;1.60;;;;;37.00;101266.00;;;;13083308;22;20697;-76
2022/09/05 11:28:29;;;;;;;3.00;1.70;;;;;37.20;101270.00;;;;13083825;22;20187;-75
2022/09/05 11:34:02;;;;;;;3.90;1.30;;;;;37.10;101260.00;;;;13062488;22;20199;-76
2022/09/05 11:39:48;;;;;;;1.30;1.20;;;;;37.20;101262.00;;;;13110349;22;20223;-76
2022/09/05 11:45:16;;;;;;;7.13;1.60;;;;;37.70;101261.00;;;;13111888;22;20163;-77
2022/09/05 11:50:29;;;;;;;3.38;1.40;;;;;38.10;101255.00;;;;13082978;22;20427;-76
2022/09/05 11:56:08;;;;;;;2.33;1.30;;;;;38.40;101256.00;;;;13061347;22;20716;-76
2022/09/05 12:01:26;;;;;;;2.15;1.15;;;;;36.90;101254.00;;;;13036136;22;20183;-76
2022/09/05 12:07:04;;;;;;;1.20;1.00;;;;;36.30;101254.00;;;;13083404;22;20194;-76
2022/09/05 12:12:34;;;;;;;3.10;1.38;;;;;36.70;101247.00;;;;13083576;22;20190;-76
2022/09/05 12:18:19;;;;;;;1.73;1.27;;;;;37.70;101239.00;;;;13061672;22;20718;-76
2022/09/05 12:23:43;;;;;;;1.80;1.15;;;;;37.00;101241.00;;;;13110004;22;20276;-76
2022/09/05 12:29:19;;;;;;;1.50;1.17;;;;;36.60;101237.00;;;;13062682;22;20188;-76
2022/09/05 12:34:49;;;;;;;1.30;1.20;;;;;37.10;101228.00;;;;13035518;22;20195;-77
2022/09/05 12:40:15;;;;;;;3.63;1.30;;;;;36.30;101244.00;;;;13111173;22;20757;-76
2022/09/05 12:45:48;;;;;;;1.98;1.20;;;;;36.80;101232.00;;;;13110264;22;20224;-76
2022/09/05 12:51:10;;;;;;;1.27;1.17;;;;;37.70;101226.00;;;;13060653;22;20179;-77
2022/09/05 12:56:57;;;;;;;1.50;1.13;;;;;38.00;101212.00;;;;13082354;22;20188;-76
2022/09/05 13:02:26;;;;;;;3.55;1.30;;;;;37.70;101210.00;;;;13089914;22;20192;-76
2022/09/05 13:07:55;;;;;;;13.43;8.48;;;;;37.70;101207.00;;;;13089962;22;20211;-76
2022/09/05 13:13:07;;;;;;;3.78;2.42;;;;;37.50;101208.00;;;;13085320;22;20156;-76
2022/09/05 13:18:39;;;;;;;2.70;1.08;;;;;36.80;101202.00;;;;13114443;22;20175;-76
2022/09/05 13:24:06;;;;;;;3.20;1.50;;;;;35.90;101191.00;;;;13061493;22;20170;-76
2022/09/05 13:29:51;;;;;;;2.47;1.38;;;;;37.00;101166.00;;;;13063839;22;20337;-76
2022/09/05 13:35:28;;;;;;;2.35;1.60;;;;;36.50;101186.00;;;;13063088;22;20706;-76
2022/09/05 13:40:56;;;;;;;1.55;1.25;;;;;37.00;101171.00;;;;13036683;22;20542;-76
2022/09/05 13:46:05;;;;;;;6.82;1.25;;;;;39.80;101178.00;;;;13085404;22;20677;-76
2022/09/05 13:52:08;;;;;;;2.42;1.40;;;;;40.80;101164.00;;;;13112273;22;20890;-76
2022/09/05 13:57:31;;;;;;;1.95;1.25;;;;;41.60;101161.00;;;;12908607;22;20223;-76
2022/09/05 14:03:01;;;;;;;5.30;1.33;;;;;42.70;101143.00;;;;13110428;22;20163;-76
2022/09/05 14:09:09;;;;;;;5.57;1.73;;;;;44.10;101143.00;;;;13038892;22;20605;-76
2022/09/05 14:14:52;;;;;;;3.95;1.73;;;;;40.00;101142.00;;;;13039514;22;20392;-76
2022/09/05 14:25:38;;;;;;;2.25;1.50;;;;;38.80;101113.00;;;;13063309;22;20194;-76
2022/09/05 14:31:04;;;;;;;2.70;1.40;;;;;37.70;101104.00;;;;13036923;22;20179;-75
2022/09/05 14:36:39;;;;;;;2.10;1.25;;;;;36.00;101106.00;;;;13085023;22;20831;-76
2022/09/05 14:42:28;;;;;;;3.42;1.30;;;;;35.20;101085.00;;;;13085298;22;20163;-76
2022/09/05 14:47:59;;;;;;;2.85;1.40;;;;;35.30;101090.00;;;;13083183;22;20166;-76
2022/09/05 14:53:05;;;;;;;1.95;1.30;;;;;34.20;101090.00;;;;13088743;22;20176;-76
2022/09/05 14:58:28;;;;;;;2.70;1.77;;;;;33.50;101078.00;;;;13083588;22;20782;-76
2022/09/05 15:03:50;;;;;;;3.13;1.55;;;;;32.80;101080.00;;;;13061218;22;20177;-76
2022/09/05 15:09:15;;;;;;;1.77;1.60;;;;;31.80;101086.00;;;;13110609;22;20167;-76
2022/09/05 15:14:37;;;;;;;5.28;1.60;;;;;31.30;101071.00;;;;13061708;22;20241;-76
2022/09/05 15:20:07;;;;;;;3.13;1.60;;;;;30.90;101083.00;;;;13060262;22;20168;-76
2022/09/05 15:25:28;;;;;;;5.20;1.55;;;;;30.40;101092.00;;;;13032865;22;20220;-76
2022/09/05 15:30:34;;;;;;;11.65;2.35;;;;;29.90;101145.00;;;;13059561;22;20178;-75
2022/09/05 15:35:42;;;;;;;21.15;5.30;;;;;27.50;101141.00;;;;13054404;22;20204;-79
2022/09/05 15:40:43;;;;;;;17.42;5.13;;;;;23.50;101163.00;;;;13014629;22;20164;-77
2022/09/05 15:45:48;;;;;;;9.90;3.38;;;;;21.90;101193.00;;;;12991563;22;20247;-78
2022/09/05 15:50:52;;;;;;;7.03;3.15;;;;;21.30;101216.00;;;;13085401;22;20164;-76
2022/09/05 15:56:01;;;;;;;3.25;2.08;;;;;21.30;101179.00;;;;13062508;22;20195;-76
2022/09/05 16:01:15;;;;;;;8.05;2.75;;;;;21.50;101170.00;;;;13084237;22;20156;-77
2022/09/05 16:06:32;;;;;;;6.65;2.72;;;;;21.80;101147.00;;;;13062779;22;20232;-77
2022/09/05 16:11:53;;;;;;;8.80;3.50;;;;;21.70;101137.00;;;;12989770;22;20538;-77
2022/09/05 16:17:30;;;;;;;9.13;3.17;;;;;22.10;101120.00;;;;13109914;22;20666;-77
2022/09/05 16:23:02;;;;;;;10.00;3.80;;;;;22.40;101133.00;;;;13057391;22;20501;-77
2022/09/05 16:29:06;;;;;;;7.22;2.65;;;;;22.40;101138.00;;;;13105699;22;20234;-77
2022/09/05 16:34:28;;;;;;;6.28;3.15;;;;;22.30;101121.00;;;;13054889;22;20244;-77
2022/09/05 16:39:34;;;;;;;5.07;2.58;;;;;22.00;101089.00;;;;13032552;22;20187;-77
2022/09/05 16:44:47;;;;;;;4.65;3.67;;;;;21.80;101090.00;;;;13085741;22;20175;-76
2022/09/05 16:50:00;;;;;;;5.40;3.40;;;;;21.80;101095.00;;;;13036989;22;20175;-76
2022/09/05 16:55:27;;;;;;;5.57;2.95;;;;;21.90;101086.00;;;;13085435;22;20190;-77
2022/09/05 17:00:44;;;;;;;6.57;2.85;;;;;22.00;101083.00;;;;13032249;22;20239;-77
2022/09/05 17:05:46;;;;;;;6.90;2.53;;;;;22.00;101081.00;;;;13039278;22;20171;-76
2022/09/05 17:10:53;;;;;;;4.47;2.85;;;;;22.00;101080.00;;;;13061397;22;20216;-77
2022/09/05 17:16:01;;;;;;;2.50;2.05;;;;;21.90;101074.00;;;;13056292;22;20222;-77
2022/09/05 17:21:08;;;;;;;6.35;2.30;;;;;21.70;101071.00;;;;13064811;22;20619;-77
2022/09/05 17:26:09;;;;;;;4.10;2.20;;;;;21.30;101073.00;;;;13086212;22;20270;-77
2022/09/05 17:31:44;;;;;;;4.57;2.47;;;;;21.10;101076.00;;;;13085264;22;20198;-76
2022/09/05 17:37:08;;;;;;;4.40;1.80;;;;;20.80;101088.00;;;;13063844;22;20191;-77
2022/09/05 17:42:31;;;;;;;3.28;2.35;;;;;20.60;101071.00;;;;13037100;22;20175;-77
2022/09/05 17:47:44;;;;;;;4.50;2.70;;;;;20.50;101063.00;;;;13036930;22;20264;-77
2022/09/05 17:52:58;;;;;;;5.72;2.50;;;;;20.40;101065.00;;;;13058753;22;20174;-76
2022/09/05 17:58:18;;;;;;;17.58;6.70;;;;;20.40;101049.00;;;;13060950;22;20195;-76
2022/09/05 18:03:37;;;;;;;7.63;3.50;;;;;20.30;101047.00;;;;13107633;22;20779;-77
2022/09/05 18:08:45;;;;;;;4.65;3.15;;;;;20.20;101043.00;;;;13062947;22;20171;-77
2022/09/05 18:14:01;;;;;;;6.60;2.80;;;;;20.00;101038.00;;;;13078528;22;20180;-77
2022/09/05 18:19:31;;;;;;;6.00;3.30;;;;;19.80;101044.00;;;;13055039;22;20951;-77
2022/09/05 18:24:58;;;;;;;6.72;2.83;;;;;19.70;101052.00;;;;13023496;22;20550;-77
2022/09/05 18:30:20;;;;;;;4.63;2.65;;;;;19.60;101059.00;;;;13061899;22;20258;-77
2022/09/05 18:35:30;;;;;;;3.78;2.58;;;;;19.60;101071.00;;;;13086954;22;20199;-77
2022/09/05 18:40:59;;;;;;;3.83;2.50;;;;;19.60;101095.00;;;;13064379;22;20190;-77
2022/09/05 18:46:22;;;;;;;6.45;2.13;;;;;19.80;101101.00;;;;13062112;22;20527;-77
2022/09/05 18:51:28;;;;;;;2.60;2.38;;;;;19.90;101120.00;;;;13063661;22;20167;-77
2022/09/05 18:56:44;;;;;;;3.80;2.72;;;;;19.80;101240.00;;;;13084884;22;20214;-76
2022/09/05 19:02:46;;;;;;;11.40;2.58;;;;;19.90;101224.00;;;;13035181;22;20659;-76
2022/09/05 19:08:06;;;;;;;6.07;1.65;;;;;20.10;101256.00;;;;13085844;22;20202;-77
2022/09/05 19:13:22;;;;;;;7.18;1.85;;;;;20.20;101266.00;;;;13061476;22;20309;-77
2022/09/05 19:18:29;;;;;;;4.95;1.85;;;;;19.90;101242.00;;;;13030920;22;20179;-76
2022/09/05 19:23:42;;;;;;;4.25;2.22;;;;;19.60;101229.00;;;;13034441;22;20183;-77
2022/09/05 19:28:50;;;;;;;4.50;2.10;;;;;19.40;101223.00;;;;13056612;22;20197;-77
2022/09/05 19:34:19;;;;;;;3.35;2.50;;;;;19.30;101214.00;;;;13082335;22;20191;-78
2022/09/05 19:39:44;;;;;;;4.78;3.13;;;;;19.20;101192.00;;;;13081914;22;20167;-77
2022/09/05 19:45:06;;;;;;;9.35;3.70;;;;;19.10;101206.00;;;;13107602;22;20182;-77
2022/09/05 19:50:28;;;;;;;5.25;3.08;;;;;19.10;101198.00;;;;13037043;22;20737;-77
2022/09/05 19:55:35;;;;;;;5.47;3.67;;;;;19.10;101178.00;;;;13057596;22;20231;-77
2022/09/05 20:00:38;;;;;;;5.63;4.18;;;;;19.10;101170.00;;;;13058769;22;20175;-76
2022/09/05 20:05:40;;;;;;;5.20;4.28;;;;;19.00;101168.00;;;;13033128;22;20167;-77
2022/09/05 20:10:42;;;;;;;7.18;4.50;;;;;19.00;101181.00;;;;13111820;22;20198;-77
2022/09/05 20:15:43;;;;;;;8.10;4.72;;;;;18.90;101181.00;;;;13061261;22;20195;-77
2022/09/05 20:21:12;;;;;;;6.25;4.43;;;;;18.80;101172.00;;;;13093818;22;20159;-78
2022/09/05 20:26:21;;;;;;;4.50;4.10;;;;;18.50;101157.00;;;;13038678;22;20261;-77
2022/09/05 20:31:25;;;;;;;4.90;4.40;;;;;18.40;101143.00;;;;13012668;22;20180;-77
2022/09/05 20:36:35;;;;;;;5.57;4.32;;;;;18.30;101131.00;;;;13085767;22;20266;-77
2022/09/05 20:41:57;;;;;;;4.90;4.20;;;;;18.30;101135.00;;;;13061166;22;20167;-77
2022/09/05 20:47:33;;;;;;;5.43;4.82;;;;;18.30;101230.00;;;;13086327;22;20414;-77
2022/09/05 20:52:58;;;;;;;8.65;6.22;;;;;18.30;101271.00;;;;13082825;22;20859;-77
2022/09/05 20:58:24;;;;;;;12.25;6.97;;;;;18.00;101210.00;;;;13057488;22;20167;-79
2022/09/05 21:03:39;;;;;;;12.95;7.65;;;;;17.80;101158.00;;;;13078959;22;20167;-77
2022/09/05 21:08:41;;;;;;;9.65;6.32;;;;;17.70;101193.00;;;;13062417;22;20168;-76
2022/09/05 21:13:49;;;;;;;6.70;6.00;;;;;17.50;101261.00;;;;13082850;22;20248;-74
2022/09/05 21:18:54;;;;;;;7.60;5.70;;;;;17.50;101306.00;;;;13080868;22;20167;-74
2022/09/05 21:24:10;;;;;;;7.80;5.57;;;;;17.60;101208.00;;;;13035877;22;20645;-74
2022/09/05 21:29:24;;;;;;;9.45;5.45;;;;;17.50;101112.00;;;;13059222;22;20578;-74
2022/09/05 21:34:38;;;;;;;8.57;5.00;;;;;17.40;101108.00;;;;13062907;22;20297;-74
2022/09/05 21:39:50;;;;;;;8.10;4.65;;;;;17.30;101082.00;;;;13086953;22;20653;-74
2022/09/05 21:45:01;;;;;;;5.87;3.93;;;;;17.30;101081.00;;;;13024365;22;20198;-74
2022/09/05 21:50:26;;;;;;;4.07;3.77;;;;;17.30;101077.00;;;;13112442;22;20274;-74
2022/09/05 21:55:34;;;;;;;5.80;4.17;;;;;17.30;101062.00;;;;13084498;22;20187;-74
2022/09/05 22:00:55;;;;;;;6.37;4.10;;;;;17.30;101109.00;;;;13058824;22;20493;-74
2022/09/05 22:05:56;;;;;;;5.13;4.50;;;;;17.30;101247.00;;;;13011717;22;20204;-74
2022/09/05 22:11:01;;;;;;;9.07;4.47;;;;;17.30;101201.00;;;;13088077;22;20171;-76
2022/09/05 22:16:06;;;;;;;7.77;4.70;;;;;17.20;101226.00;;;;13058260;22;20191;-75
2022/09/05 22:21:13;;;;;;;8.32;4.65;;;;;17.20;101206.00;;;;13062296;22;20183;-74
2022/09/05 22:26:44;;;;;;;6.47;4.03;;;;;17.20;101183.00;;;;13062451;22;20198;-74
2022/09/05 22:32:05;;;;;;;4.17;3.77;;;;;17.10;101192.00;;;;13079637;22;20201;-74
2022/09/05 22:37:06;;;;;;;6.30;3.87;;;;;17.10;101198.00;;;;13083593;22;20183;-74
2022/09/05 22:42:07;;;;;;;7.83;4.57;;;;;17.10;101218.00;;;;13056913;22;20273;-74
2022/09/05 22:47:11;;;;;;;7.67;4.57;;;;;17.00;101206.00;;;;13057272;22;20190;-73
2022/09/05 22:52:13;;;;;;;6.50;4.77;;;;;17.00;101184.00;;;;13062624;22;20175;-74
2022/09/05 22:57:14;;;;;;;8.90;5.00;;;;;17.10;101176.00;;;;13062828;22;20286;-74
2022/09/05 23:02:15;;;;;;;8.80;5.30;;;;;17.10;101179.00;;;;13009038;22;20713;-74
2022/09/05 23:07:16;;;;;;;8.50;6.43;;;;;17.10;101163.00;;;;13006446;22;20704;-74
2022/09/05 23:12:17;;;;;;;11.87;6.70;;;;;17.10;101151.00;;;;13061540;22;20305;-74
2022/09/05 23:17:18;;;;;;;10.75;7.50;;;;;17.10;101114.00;;;;13059563;22;20195;-74
2022/09/05 23:22:20;;;;;;;9.27;8.27;;;;;17.10;101076.00;;;;13082455;22;20187;-74
2022/09/05 23:27:21;;;;;;;9.10;8.17;;;;;17.10;101024.00;;;;13036956;22;20560;-74
2022/09/05 23:32:22;;;;;;;10.47;9.57;;;;;17.10;100995.00;;;;13109628;22;20537;-74
2022/09/05 23:37:23;;;;;;;9.30;8.43;;;;;17.00;101016.00;;;;13036707;22;20296;-74
2022/09/05 23:42:24;;;;;;;9.30;8.00;;;;;17.00;100996.00;;;;13035242;22;20258;-74
2022/09/05 23:47:26;;;;;;;8.27;7.20;;;;;17.00;100997.00;;;;13060680;22;20784;-73
2022/09/05 23:52:29;;;;;;;8.40;7.60;;;;;17.00;100985.00;;;;13010048;22;20199;-73
2022/09/05 23:57:31;;;;;;;8.10;7.37;;;;;17.00;101000.00;;;;13057147;22;20190;-73
